createdAt,value
2018-12-19T00:00:55.049Z,13.60
2018-12-19T00:03:22.524Z,14.03
2018-12-19T00:05:49.995Z,14.20
2018-12-19T00:08:17.484Z,14.47
2018-12-19T00:10:44.967Z,14.03
2018-12-19T00:13:14.472Z,14.33
2018-12-19T00:15:41.934Z,14.07
2018-12-19T00:18:09.540Z,14.73
2018-12-19T00:20:37.050Z,13.50
2018-12-19T00:23:04.539Z,14.43
2018-12-19T00:25:32.035Z,14.13
2018-12-19T00:27:59.627Z,15.13
2018-12-19T00:30:27.154Z,13.90
2018-12-19T00:32:54.726Z,14.87
2018-12-19T00:35:22.211Z,14.20
2018-12-19T00:37:49.694Z,14.43
2018-12-19T00:40:17.175Z,14.07
2018-12-19T00:42:44.652Z,14.23
2018-12-19T00:45:12.143Z,14.67
2018-12-19T00:47:39.617Z,15.67
2018-12-19T00:50:07.097Z,16.13
2018-12-19T00:52:34.706Z,14.40
2018-12-19T00:55:02.213Z,14.60
2018-12-19T00:57:29.718Z,15.40
2018-12-19T00:59:58.102Z,14.47
2018-12-19T01:02:25.584Z,14.77
2018-12-19T01:04:53.068Z,14.73
2018-12-19T01:07:20.636Z,14.77
2018-12-19T01:09:48.295Z,14.70
2018-12-19T01:12:15.762Z,15.73
2018-12-19T01:14:43.243Z,13.97
2018-12-19T01:17:10.737Z,15.57
2018-12-19T01:19:38.227Z,14.70
2018-12-19T01:22:05.711Z,15.57
2018-12-19T01:24:33.209Z,16.20
2018-12-19T01:27:00.678Z,14.43
2018-12-19T01:29:28.166Z,15.07
2018-12-19T01:31:55.652Z,14.73
2018-12-19T01:34:23.138Z,15.90
2018-12-19T01:36:50.622Z,14.67
2018-12-19T01:39:22.448Z,14.47
2018-12-19T01:41:47.591Z,14.77
2018-12-19T01:44:15.087Z,14.43
2018-12-19T01:46:42.551Z,14.83
2018-12-19T01:49:10.174Z,15.77
2018-12-19T01:51:38.074Z,14.07
2018-12-19T01:54:06.201Z,14.80
2018-12-19T01:56:33.703Z,15.80
2018-12-19T01:59:01.174Z,14.40
2018-12-19T02:01:28.706Z,14.50
2018-12-19T02:03:56.183Z,14.90
2018-12-19T02:06:23.688Z,15.30
2018-12-19T02:08:51.170Z,15.47
2018-12-19T02:11:18.668Z,14.30
2018-12-19T02:13:46.205Z,14.33
2018-12-19T02:16:13.685Z,14.43
2018-12-19T02:18:41.145Z,14.40
2018-12-19T02:21:08.642Z,15.10
2018-12-19T02:23:36.115Z,15.13
2018-12-19T02:26:03.648Z,15.30
2018-12-19T02:28:31.127Z,14.37
2018-12-19T02:30:58.637Z,15.03
2018-12-19T02:33:26.726Z,14.23
2018-12-19T02:35:54.215Z,15.10
2018-12-19T02:38:21.689Z,15.53
2018-12-19T02:40:49.229Z,15.07
2018-12-19T02:43:17.099Z,15.77
2018-12-19T02:45:44.567Z,15.93
2018-12-19T02:48:12.349Z,15.27
2018-12-19T02:50:39.831Z,14.93
2018-12-19T02:53:07.332Z,14.90
2018-12-19T02:55:35.530Z,15.70
2018-12-19T02:58:03.190Z,16.57
2018-12-19T03:00:30.647Z,15.87
2018-12-19T03:02:58.165Z,16.37
2018-12-19T03:05:25.662Z,15.43
2018-12-19T03:07:53.331Z,15.67
2018-12-19T03:10:21.360Z,16.03
2018-12-19T03:12:48.850Z,14.83
2018-12-19T03:15:16.836Z,16.73
2018-12-19T03:17:44.337Z,16.47
2018-12-19T03:20:11.925Z,16.57
2018-12-19T03:22:39.398Z,16.53
2018-12-19T03:25:06.870Z,17.03
2018-12-19T03:27:34.366Z,16.23
2018-12-19T03:30:01.857Z,16.33
2018-12-19T03:32:29.753Z,17.37
2018-12-19T03:34:57.257Z,17.53
2018-12-19T03:37:25.062Z,15.93
2018-12-19T03:39:52.532Z,16.40
2018-12-19T03:42:20.029Z,15.70
2018-12-19T03:44:47.516Z,16.33
2018-12-19T03:47:15.002Z,16.00
2018-12-19T03:49:42.919Z,16.07
2018-12-19T03:52:10.521Z,15.73
2018-12-19T03:54:38.057Z,14.60
2018-12-19T03:57:06.346Z,14.30
2018-12-19T03:59:33.820Z,14.73
2018-12-19T04:02:01.300Z,14.17
2018-12-19T04:04:29.246Z,14.17
2018-12-19T04:06:56.709Z,14.67
2018-12-19T04:09:24.259Z,14.07
2018-12-19T04:11:52.102Z,14.83
2018-12-19T04:14:19.679Z,13.67
2018-12-19T04:16:47.277Z,14.63
2018-12-19T04:19:14.772Z,15.30
2018-12-19T04:21:42.235Z,14.50
2018-12-19T04:24:09.718Z,14.77
2018-12-19T04:26:37.195Z,14.20
2018-12-19T04:29:04.725Z,15.20
2018-12-19T04:31:32.172Z,15.67
2018-12-19T04:34:00.459Z,14.73
2018-12-19T04:36:28.026Z,14.93
2018-12-19T04:38:55.498Z,15.20
2018-12-19T04:41:22.987Z,15.80
2018-12-19T04:43:50.593Z,14.73
2018-12-19T04:46:18.047Z,13.77
2018-12-19T04:48:45.510Z,15.93
2018-12-19T04:51:12.971Z,14.93
2018-12-19T04:53:40.449Z,14.50
2018-12-19T04:56:07.919Z,15.87
2018-12-19T04:58:35.410Z,14.87
2018-12-19T05:01:02.875Z,15.37
2018-12-19T05:03:30.420Z,14.63
2018-12-19T05:05:57.872Z,15.40
2018-12-19T05:08:25.456Z,14.87
2018-12-19T05:10:52.930Z,15.50
2018-12-19T05:13:20.469Z,15.83
2018-12-19T05:15:47.945Z,15.47
2018-12-19T05:18:15.407Z,16.10
2018-12-19T05:20:42.937Z,16.33
2018-12-19T05:23:10.495Z,15.80
2018-12-19T05:25:37.980Z,16.10
2018-12-19T05:28:05.649Z,16.70
2018-12-19T05:30:33.133Z,15.83
2018-12-19T05:33:00.656Z,15.80
2018-12-19T05:35:28.148Z,15.70
2018-12-19T05:37:56.380Z,14.80
2018-12-19T05:40:23.949Z,16.63
2018-12-19T05:42:51.423Z,15.17
2018-12-19T05:45:19.179Z,16.13
2018-12-19T05:47:47.101Z,15.17
2018-12-19T05:50:15.939Z,16.30
2018-12-19T05:52:43.480Z,15.13
2018-12-19T05:55:11.123Z,15.87
2018-12-19T05:57:38.750Z,14.63
2018-12-19T06:00:07.707Z,14.93
2018-12-19T06:02:35.211Z,14.87
2018-12-19T06:05:03.077Z,14.83
2018-12-19T06:07:30.569Z,14.53
2018-12-19T06:09:58.049Z,14.27
2018-12-19T06:12:25.574Z,14.63
2018-12-19T06:14:53.079Z,14.50
2018-12-19T06:17:21.328Z,15.17
2018-12-19T06:19:48.795Z,15.20
2018-12-19T06:22:16.666Z,15.00
2018-12-19T06:24:44.154Z,14.63
2018-12-19T06:27:11.639Z,14.87
2018-12-19T06:29:40.026Z,14.40
2018-12-19T06:32:07.525Z,14.97
2018-12-19T06:34:35.186Z,15.60
2018-12-19T06:37:02.703Z,14.83
2018-12-19T06:39:30.998Z,14.53
2018-12-19T06:41:58.491Z,14.17
2018-12-19T06:44:25.949Z,14.53
2018-12-19T06:46:53.451Z,15.07
2018-12-19T06:49:21.892Z,15.70
2018-12-19T06:51:49.376Z,14.47
2018-12-19T06:54:16.871Z,14.27
2018-12-19T06:56:44.358Z,15.30
2018-12-19T06:59:11.833Z,14.87
2018-12-19T07:01:39.317Z,14.50
2018-12-19T07:04:06.787Z,13.90
2018-12-19T07:06:34.326Z,14.00
2018-12-19T07:09:02.169Z,13.43
2018-12-19T07:11:29.672Z,15.53
2018-12-19T07:13:57.132Z,14.00
2018-12-19T07:16:25.293Z,14.27
2018-12-19T07:18:52.865Z,13.90
2018-12-19T07:21:20.342Z,15.33
2018-12-19T07:23:47.871Z,15.00
2018-12-19T07:26:15.357Z,13.57
2018-12-19T07:28:42.875Z,14.27
2018-12-19T07:31:10.945Z,14.47
2018-12-19T07:33:38.420Z,13.80
2018-12-19T07:36:06.086Z,14.20
2018-12-19T07:38:34.080Z,14.90
2018-12-19T07:41:01.603Z,14.13
2018-12-19T07:43:29.066Z,13.30
2018-12-19T07:45:56.945Z,14.17
2018-12-19T07:48:24.674Z,14.53
2018-12-19T07:50:52.155Z,14.63
2018-12-19T07:53:19.715Z,14.20
2018-12-19T07:55:47.383Z,13.73
2018-12-19T07:58:14.910Z,14.20
2018-12-19T08:00:43.055Z,13.77
2018-12-19T08:03:10.677Z,13.43
2018-12-19T08:05:38.170Z,13.10
2018-12-19T08:08:05.668Z,13.60
2018-12-19T08:10:33.142Z,13.10
2018-12-19T08:13:00.642Z,13.47
2018-12-19T08:15:28.139Z,12.73
2018-12-19T08:17:55.840Z,13.20
2018-12-19T08:20:23.354Z,13.07
2018-12-19T08:22:50.857Z,13.23
2018-12-19T08:25:18.333Z,13.43
2018-12-19T08:27:45.918Z,14.13
2018-12-19T08:30:13.389Z,13.53
2018-12-19T08:32:40.904Z,13.73
2018-12-19T08:35:08.511Z,13.80
2018-12-19T08:37:36.037Z,14.17
2018-12-19T08:40:04.802Z,14.77
2018-12-19T08:42:32.312Z,14.47
2018-12-19T08:44:59.777Z,15.30
2018-12-19T08:47:27.360Z,14.20
2018-12-19T08:49:54.809Z,14.73
2018-12-19T08:52:22.311Z,14.57
2018-12-19T08:54:49.812Z,14.90
2018-12-19T08:57:17.322Z,13.70
2018-12-19T08:59:44.794Z,14.90
2018-12-19T09:02:12.336Z,15.07
2018-12-19T09:04:39.805Z,13.77
2018-12-19T09:07:07.443Z,14.17
2018-12-19T09:09:34.915Z,13.43
2018-12-19T09:12:02.447Z,14.07
2018-12-19T09:14:29.929Z,13.10
2018-12-19T09:16:57.399Z,13.57
2018-12-19T09:19:24.865Z,14.23
2018-12-19T09:21:52.343Z,13.17
2018-12-19T09:24:19.831Z,13.80
2018-12-19T09:26:47.315Z,13.07
2018-12-19T09:29:14.865Z,13.77
2018-12-19T09:31:45.534Z,13.50
2018-12-19T09:34:13.810Z,12.53
2018-12-19T09:36:41.373Z,13.30
2018-12-19T09:39:08.845Z,14.50
2018-12-19T09:41:36.323Z,13.53
2018-12-19T09:44:03.819Z,13.67
2018-12-19T09:46:31.300Z,13.53
2018-12-19T09:48:58.770Z,12.83
2018-12-19T09:51:26.251Z,13.00
2018-12-19T09:53:53.736Z,12.27
2018-12-19T09:56:21.199Z,13.10
2018-12-19T09:58:48.680Z,13.53
2018-12-19T10:01:16.146Z,13.33
2018-12-19T10:03:43.625Z,12.40
2018-12-19T10:06:11.088Z,12.17
2018-12-19T10:08:38.576Z,13.23
2018-12-19T10:11:06.041Z,12.27
2018-12-19T10:13:33.556Z,12.33
2018-12-19T10:16:01.134Z,12.73
2018-12-19T10:18:28.607Z,12.87
2018-12-19T10:20:56.087Z,12.67
2018-12-19T10:23:23.561Z,13.43
2018-12-19T10:28:53.917Z,11.90
2018-12-19T10:31:21.399Z,11.67
2018-12-19T10:33:48.871Z,13.00
2018-12-19T10:36:18.343Z,12.23
2018-12-19T10:38:46.434Z,11.90
2018-12-19T10:41:14.074Z,12.70
2018-12-19T10:43:41.811Z,13.57
2018-12-19T10:46:09.336Z,13.27
2018-12-19T10:48:36.807Z,13.40
2018-12-19T10:51:04.289Z,13.90
2018-12-19T10:53:31.847Z,12.73
2018-12-19T10:55:59.332Z,13.20
2018-12-19T10:58:26.782Z,12.80
2018-12-19T11:00:59.913Z,12.83
2018-12-19T11:03:27.375Z,13.33
2018-12-19T11:05:54.856Z,12.77
2018-12-19T11:08:22.323Z,13.23
2018-12-19T11:10:49.850Z,13.07
2018-12-19T11:13:17.325Z,12.90
2018-12-19T11:15:44.816Z,12.77
2018-12-19T11:18:12.288Z,13.00
2018-12-19T11:20:39.788Z,13.17
2018-12-19T11:23:07.259Z,13.50
2018-12-19T11:25:34.766Z,13.33
2018-12-19T11:28:02.232Z,13.20
2018-12-19T11:30:29.716Z,14.40
2018-12-19T11:32:57.205Z,13.67
2018-12-19T11:35:24.752Z,12.97
2018-12-19T11:37:52.347Z,13.93
2018-12-19T11:40:19.816Z,13.60
2018-12-19T11:42:47.287Z,13.00
2018-12-19T11:45:14.804Z,13.23
2018-12-19T11:47:42.291Z,14.37
2018-12-19T11:50:09.765Z,12.87
2018-12-19T11:52:37.258Z,13.87
2018-12-19T11:55:05.083Z,13.57
2018-12-19T11:57:32.692Z,27.43
2018-12-19T12:00:00.168Z,14.73
2018-12-19T12:02:27.653Z,14.20
2018-12-19T12:04:55.138Z,14.40
2018-12-19T12:07:22.615Z,13.83
2018-12-19T12:09:50.070Z,14.50
2018-12-19T12:12:17.551Z,13.57
2018-12-19T12:14:45.022Z,14.70
2018-12-19T12:17:12.514Z,13.77
2018-12-19T12:19:40.006Z,14.17
2018-12-19T12:22:07.505Z,13.90
2018-12-19T12:24:34.996Z,14.10
2018-12-19T12:27:02.483Z,13.03
2018-12-19T12:29:29.948Z,14.57
2018-12-19T12:31:57.433Z,14.17
2018-12-19T12:34:24.983Z,13.23
2018-12-19T12:36:52.821Z,13.83
2018-12-19T12:39:20.364Z,13.83
2018-12-19T12:41:52.342Z,13.87
2018-12-19T12:44:17.367Z,13.93
2018-12-19T12:46:44.937Z,13.77
2018-12-19T12:49:12.434Z,15.77
2018-12-19T12:51:39.889Z,15.43
2018-12-19T12:54:07.378Z,15.20
2018-12-19T12:56:34.830Z,14.23
2018-12-19T12:59:02.311Z,14.50
2018-12-19T13:01:29.777Z,14.03
2018-12-19T13:03:57.263Z,14.17
2018-12-19T13:06:24.780Z,14.03
2018-12-19T13:08:52.272Z,13.93
2018-12-19T13:11:19.743Z,14.37
2018-12-19T13:13:47.243Z,13.87
2018-12-19T13:16:14.787Z,14.17
2018-12-19T13:18:42.259Z,13.93
2018-12-19T13:21:09.738Z,14.83
2018-12-19T13:23:37.229Z,15.03
2018-12-19T13:26:04.690Z,13.77
2018-12-19T13:28:32.184Z,14.53
2018-12-19T13:30:59.649Z,14.13
2018-12-19T13:33:27.117Z,14.03
2018-12-19T13:35:54.591Z,15.03
2018-12-19T13:38:22.087Z,15.23
2018-12-19T13:40:49.543Z,14.30
2018-12-19T13:43:17.013Z,13.87
2018-12-19T13:45:44.476Z,14.43
2018-12-19T13:48:11.977Z,14.77
2018-12-19T13:50:39.438Z,14.00
2018-12-19T13:53:06.889Z,14.83
2018-12-19T13:55:34.372Z,14.23
2018-12-19T13:58:07.020Z,14.77
2018-12-19T14:00:32.022Z,14.37
2018-12-19T14:02:59.565Z,14.53
2018-12-19T14:05:27.123Z,14.43
2018-12-19T14:07:54.683Z,15.20
2018-12-19T14:10:22.218Z,14.73
2018-12-19T14:12:49.695Z,15.57
2018-12-19T14:15:17.186Z,13.60
2018-12-19T14:17:44.677Z,15.37
2018-12-19T14:20:12.158Z,14.67
2018-12-19T14:22:39.734Z,14.77
2018-12-19T14:25:07.290Z,14.20
2018-12-19T14:27:34.745Z,14.70
2018-12-19T14:30:02.439Z,14.33
2018-12-19T14:32:29.945Z,14.13
2018-12-19T14:34:57.511Z,14.57
2018-12-19T14:37:25.056Z,14.77
2018-12-19T14:39:52.541Z,14.67
2018-12-19T14:42:20.005Z,14.20
2018-12-19T14:44:47.534Z,14.97
2018-12-19T14:47:14.989Z,14.23
2018-12-19T14:49:42.551Z,15.00
2018-12-19T14:52:10.198Z,14.87
2018-12-19T14:54:37.673Z,14.73
2018-12-19T14:57:05.939Z,14.50
2018-12-19T14:59:33.562Z,14.83
2018-12-19T15:02:01.596Z,15.50
2018-12-19T15:04:29.051Z,15.43
2018-12-19T15:06:56.544Z,14.20
2018-12-19T15:09:24.009Z,15.70
2018-12-19T15:11:51.565Z,15.03
2018-12-19T15:14:19.033Z,15.57
2018-12-19T15:16:46.648Z,15.47
2018-12-19T15:19:14.125Z,14.87
2018-12-19T15:21:41.620Z,16.10
2018-12-19T15:24:09.090Z,15.13
2018-12-19T15:26:36.668Z,15.27
2018-12-19T15:29:04.143Z,16.13
2018-12-19T15:31:31.621Z,16.00
2018-12-19T15:33:59.094Z,15.60
2018-12-19T15:36:26.928Z,16.13
2018-12-19T15:38:54.375Z,15.83
2018-12-19T15:41:21.909Z,14.50
2018-12-19T15:43:50.086Z,15.47
2018-12-19T15:46:17.635Z,15.87
2018-12-19T15:48:45.818Z,16.20
2018-12-19T15:51:13.601Z,16.43
2018-12-19T15:53:41.546Z,15.57
2018-12-19T15:56:09.019Z,14.87
2018-12-19T15:58:36.597Z,15.57
2018-12-19T16:01:04.155Z,15.40
2018-12-19T16:03:31.968Z,15.83
2018-12-19T16:05:59.459Z,15.63
2018-12-19T16:08:27.634Z,15.60
2018-12-19T16:10:55.392Z,16.03
2018-12-19T16:13:22.967Z,15.33
2018-12-19T16:15:50.460Z,15.70
2018-12-19T16:18:17.966Z,14.90
2018-12-19T16:20:45.424Z,15.60
2018-12-19T16:23:13.005Z,14.90
2018-12-19T16:25:40.559Z,15.63
2018-12-19T16:28:08.046Z,14.27
2018-12-19T16:30:35.496Z,15.37
2018-12-19T16:33:03.040Z,15.63
2018-12-19T16:35:30.751Z,15.23
2018-12-19T16:37:58.243Z,15.33
2018-12-19T16:40:25.707Z,15.67
2018-12-19T16:42:53.223Z,15.93
2018-12-19T16:45:20.677Z,15.70
2018-12-19T16:47:48.175Z,15.90
2018-12-19T16:50:15.646Z,15.10
2018-12-19T16:52:43.191Z,15.93
2018-12-19T16:55:10.657Z,15.23
2018-12-19T16:57:38.221Z,16.00
2018-12-19T17:00:07.483Z,15.03
2018-12-19T17:02:35.076Z,15.40
2018-12-19T17:05:02.540Z,15.23
2018-12-19T17:07:30.029Z,15.80
2018-12-19T17:09:57.481Z,15.67
2018-12-19T17:12:24.972Z,15.27
2018-12-19T17:14:52.430Z,16.23
2018-12-19T17:17:19.920Z,16.23
2018-12-19T17:19:47.390Z,15.50
2018-12-19T17:22:14.937Z,15.77
2018-12-19T17:24:42.413Z,16.30
2018-12-19T17:27:09.893Z,16.00
2018-12-19T17:29:37.344Z,15.33
2018-12-19T17:32:04.881Z,15.10
2018-12-19T17:34:32.424Z,16.60
2018-12-19T17:36:59.893Z,16.10
2018-12-19T17:39:27.415Z,16.67
2018-12-19T17:41:54.879Z,16.10
2018-12-19T17:44:22.361Z,15.57
2018-12-19T17:46:49.832Z,15.23
2018-12-19T17:49:17.323Z,15.63
2018-12-19T17:51:44.936Z,17.10
2018-12-19T17:54:13.013Z,16.33
2018-12-19T17:56:40.502Z,17.27
2018-12-19T17:59:07.979Z,16.17
2018-12-19T18:01:35.715Z,16.70
2018-12-19T18:04:03.311Z,17.07
2018-12-19T18:06:30.800Z,15.43
2018-12-19T18:08:58.326Z,15.93
2018-12-19T18:11:25.841Z,15.77
2018-12-19T18:13:53.315Z,16.03
2018-12-19T18:16:20.786Z,15.60
2018-12-19T18:18:48.459Z,15.30
2018-12-19T18:21:15.918Z,15.90
2018-12-19T18:23:43.423Z,15.60
2018-12-19T18:26:10.891Z,15.87
2018-12-19T18:28:38.484Z,16.43
2018-12-19T18:31:05.989Z,16.00
2018-12-19T18:33:33.539Z,17.03
2018-12-19T18:36:01.026Z,16.97
2018-12-19T18:38:28.535Z,17.33
2018-12-19T18:40:56.123Z,18.53
2018-12-19T18:43:23.592Z,16.87
2018-12-19T18:45:51.096Z,16.60
2018-12-19T18:48:18.655Z,15.70
2018-12-19T18:50:46.144Z,16.30
2018-12-19T18:53:13.619Z,16.73
2018-12-19T18:55:41.144Z,17.13
2018-12-19T18:58:08.615Z,16.47
2018-12-19T19:00:36.135Z,17.00
2018-12-19T19:03:03.821Z,17.00
2018-12-19T19:05:31.362Z,16.70
2018-12-19T19:07:58.830Z,16.27
2018-12-19T19:10:26.312Z,17.40
2018-12-19T19:12:53.776Z,17.40
2018-12-19T19:15:21.321Z,16.10
2018-12-19T19:17:48.782Z,17.23
2018-12-19T19:20:16.265Z,17.70
2018-12-19T19:22:43.795Z,17.00
2018-12-19T19:25:11.291Z,17.50
2018-12-19T19:27:38.754Z,18.50
2018-12-19T19:30:07.976Z,17.80
2018-12-19T19:32:35.447Z,19.73
2018-12-19T19:35:03.317Z,18.20
2018-12-19T19:37:31.610Z,17.77
2018-12-19T19:39:59.091Z,18.40
2018-12-19T19:42:26.555Z,17.80
2018-12-19T19:44:54.028Z,17.20
2018-12-19T19:47:21.509Z,17.27
2018-12-19T19:49:49.046Z,19.10
2018-12-19T19:52:16.516Z,17.43
2018-12-19T19:54:43.998Z,20.70
2018-12-19T19:57:11.576Z,21.33
2018-12-19T19:59:39.021Z,20.77
2018-12-19T20:02:06.535Z,20.13
2018-12-19T20:04:34.005Z,19.67
2018-12-19T20:07:01.490Z,19.10
2018-12-19T20:09:28.956Z,18.77
2018-12-19T20:11:56.432Z,17.87
2018-12-19T20:14:23.926Z,18.23
2018-12-19T20:16:57.109Z,18.57
2018-12-19T20:19:24.680Z,18.57
2018-12-19T20:21:52.325Z,18.80
2018-12-19T20:24:19.821Z,19.00
2018-12-19T20:26:47.344Z,20.13
2018-12-19T20:29:14.872Z,19.93
2018-12-19T20:31:42.428Z,18.70
2018-12-19T20:34:09.989Z,18.23
2018-12-19T20:36:37.481Z,19.57
2018-12-19T20:39:06.481Z,19.20
2018-12-19T20:41:34.198Z,20.33
2018-12-19T20:44:01.681Z,21.53
2018-12-19T20:46:29.214Z,21.80
2018-12-19T20:48:56.707Z,22.23
2018-12-19T20:51:24.184Z,19.23
2018-12-19T20:53:51.687Z,19.17
2018-12-19T20:56:19.268Z,18.93
2018-12-19T20:58:46.887Z,17.53
2018-12-19T21:01:14.478Z,17.13
2018-12-19T21:03:41.962Z,17.87
2018-12-19T21:06:09.462Z,17.30
2018-12-19T21:08:36.991Z,17.17
2018-12-19T21:11:04.473Z,18.17
2018-12-19T21:13:31.954Z,18.00
2018-12-19T21:15:59.892Z,18.13
2018-12-19T21:21:33.417Z,17.20
2018-12-19T21:24:00.906Z,17.70
2018-12-19T21:26:28.411Z,18.13
2018-12-19T21:28:56.879Z,18.20
2018-12-19T21:31:24.380Z,18.70
2018-12-19T21:33:51.874Z,17.90
2018-12-19T21:36:19.393Z,19.87
2018-12-19T21:38:47.070Z,18.50
2018-12-19T21:41:16.403Z,18.97
2018-12-19T21:43:43.911Z,20.23
2018-12-19T21:46:11.476Z,19.57
2018-12-19T21:48:39.669Z,19.47
2018-12-19T21:51:07.211Z,19.63
2018-12-19T21:53:34.794Z,20.40
2018-12-19T21:56:02.379Z,19.57
2018-12-19T21:58:29.945Z,20.20
2018-12-19T22:00:57.534Z,19.73
2018-12-19T22:03:25.058Z,19.03
2018-12-19T22:05:52.772Z,19.70
2018-12-19T22:08:20.351Z,18.47
2018-12-19T22:10:47.903Z,18.97
2018-12-19T22:13:15.395Z,17.60
2018-12-19T22:15:44.160Z,17.30
2018-12-19T22:18:22.003Z,17.63
2018-12-19T22:20:51.501Z,17.43
2018-12-19T22:23:18.984Z,18.20
2018-12-19T22:25:50.456Z,18.20
2018-12-19T22:28:17.945Z,18.93
2018-12-19T22:30:45.478Z,18.93
2018-12-19T22:33:13.236Z,19.13
2018-12-19T22:35:40.906Z,18.97
2018-12-19T22:38:08.391Z,19.10
2018-12-19T22:40:36.045Z,19.63
2018-12-19T22:43:03.649Z,19.03
2018-12-19T22:45:31.225Z,19.70
2018-12-19T22:47:58.885Z,21.07
2018-12-19T22:50:26.593Z,20.83
2018-12-19T22:52:54.378Z,20.37
2018-12-19T22:55:21.931Z,21.43
2018-12-19T22:57:49.453Z,19.80
2018-12-19T23:00:17.069Z,20.87
2018-12-19T23:02:50.239Z,20.90
2018-12-19T23:05:19.816Z,19.90
2018-12-19T23:07:48.137Z,20.17
2018-12-19T23:10:15.746Z,19.50
2018-12-19T23:12:43.280Z,20.43
2018-12-19T23:15:10.886Z,21.10
2018-12-19T23:17:39.395Z,20.17
2018-12-19T23:20:09.174Z,20.50
2018-12-19T23:22:36.722Z,19.97
2018-12-19T23:25:05.130Z,19.53
2018-12-19T23:27:32.866Z,20.37
2018-12-19T23:30:00.367Z,19.27
2018-12-19T23:32:28.723Z,20.03
2018-12-19T23:34:56.304Z,20.23
2018-12-19T23:37:23.846Z,20.60
2018-12-19T23:39:51.411Z,20.10
2018-12-19T23:42:19.062Z,20.20
2018-12-19T23:44:47.132Z,21.03
2018-12-19T23:47:14.898Z,20.17
2018-12-19T23:49:42.951Z,20.87
2018-12-19T23:52:10.498Z,19.80
2018-12-19T23:54:38.375Z,19.60
2018-12-19T23:57:06.095Z,21.67
2018-12-19T23:59:33.691Z,20.03
